PWSweather.com
Personal Weather Stations
Station Observations
PITCARMI1
La Serra, CarmignanoIT 59015

La SerraCarmignanoIT 59015

Lat: 43.804429, Lon: 11.027222

Elevation: 525

Station Type: Davis Vantage Vue

http://www.meteocarmignano.it

Latest ConditionsUpdated 10:00:09 PM GMT+01:01 Wednesday, Jul 30, 2014
Currently Today's Max Today's Min Today's Average
Temperature 65.8°F18.8°C 72.4°F22.4°C 60.2°F15.7°C 65.7°F18.7°C
Dew Point 63.4°F17.4°C 64.6°F18.1°C 58.4°F14.7°C 61.6°F16.4°C
Winds Calm Calm 5.1 mph SW8.2 kmh SW - 1.3 mph 2.1 kmh
Wind Gusts -- 7.0 mph11.3 kmh - -
Humidity 92% 95% 70% 87%
Pressure 29.76 in1007.8 mb 29.76 in1007.8 mb 29.59 in1002.0 mb -
Precipitation - 1.07 in27.2 mm - -
Hour Temp Dew Point Humidity Winds Wind Gusts Pressure Precip Precip Rate Daily Precip Total
10:00 PM 65.8°F18.8°C 63.4°F17.4°C 92% Calm Calm -- 29.76 in1007.8 mb 0.00 in0.0 mm 0.00 in/hr0.0 mm/hr 1.07 in27.2 mm
09:30 PM 66.6°F19.2°C 63.6°F17.6°C 90% Calm Calm -- 29.76 in1007.8 mb 0.00 in0.0 mm 0.00 in/hr0.0 mm/hr 1.07 in27.2 mm
09:00 PM 66.4°F19.1°C 63.4°F17.4°C 90% Calm Calm -- 29.75 in1007.5 mb 0.00 in0.0 mm 0.00 in/hr0.0 mm/hr 1.07 in27.2 mm
08:30 PM 66.7°F19.3°C 63.4°F17.4°C 89% Calm Calm -- 29.74 in1007.1 mb 0.00 in0.0 mm 0.00 in/hr0.0 mm/hr 1.07 in27.2 mm
08:00 PM 67.7°F19.8°C 63.4°F17.4°C 86% Calm Calm -- 29.73 in1006.8 mb 0.00 in0.0 mm 0.00 in/hr0.0 mm/hr 1.07 in27.2 mm
07:30 PM 68.4°F20.2°C 63.7°F17.6°C 85% Calm Calm 1.0 mph1.6 kmh 29.71 in1006.1 mb 0.00 in0.0 mm 0.00 in/hr0.0 mm/hr 1.07 in27.2 mm
07:00 PM 70.4°F21.3°C 63.9°F17.7°C 80% 0.3 mph E0.5 kmh E 1.0 mph1.6 kmh 29.71 in1006.1 mb 0.00 in0.0 mm 0.00 in/hr0.0 mm/hr 1.07 in27.2 mm
06:30 PM 71.3°F21.8°C 63.7°F17.6°C 77% 0.8 mph E1.3 kmh E 3.0 mph4.8 kmh 29.71 in1006.1 mb 0.00 in0.0 mm 0.00 in/hr0.0 mm/hr 1.07 in27.2 mm
06:00 PM 71.5°F21.9°C 64.6°F18.1°C 79% Calm Calm -- 29.71 in1006.1 mb 0.00 in0.0 mm 0.00 in/hr0.0 mm/hr 1.07 in27.2 mm
05:30 PM 68.9°F20.5°C 63.2°F17.3°C 82% Calm Calm 1.0 mph1.6 kmh 29.70 in1005.8 mb 0.00 in0.0 mm 0.00 in/hr0.0 mm/hr 1.07 in27.2 mm
05:00 PM 69.7°F20.9°C 63.6°F17.6°C 81% 2.3 mph NE3.7 kmh NE 4.0 mph6.4 kmh 29.70 in1005.8 mb 0.00 in0.0 mm 0.00 in/hr0.0 mm/hr 1.07 in27.2 mm
04:30 PM 69.1°F20.6°C 62.7°F17.1°C 80% Calm Calm -- 29.69 in1005.4 mb 0.00 in0.0 mm 0.00 in/hr0.0 mm/hr 1.07 in27.2 mm
04:00 PM 68.0°F20.0°C 62.3°F16.8°C 82% Calm Calm -- 29.70 in1005.8 mb 0.00 in0.0 mm 0.00 in/hr0.0 mm/hr 1.07 in27.2 mm
03:30 PM 68.4°F20.2°C 62.7°F17.1°C 82% 0.7 mph NE1.1 kmh NE 2.0 mph3.2 kmh 29.70 in1005.8 mb 0.00 in0.0 mm 0.00 in/hr0.0 mm/hr 1.07 in27.2 mm
03:00 PM 69.6°F20.9°C 62.1°F16.7°C 77% Calm Calm -- 29.70 in1005.8 mb 0.00 in0.0 mm 0.00 in/hr0.0 mm/hr 1.07 in27.2 mm
02:30 PM 68.1°F20.1°C 62.4°F16.9°C 82% Calm Calm -- 29.69 in1005.4 mb 0.00 in0.0 mm 0.00 in/hr0.0 mm/hr 1.07 in27.2 mm
02:00 PM 68.0°F20.0°C 61.9°F16.6°C 81% 3.1 mph SW5.0 kmh SW 5.0 mph8.0 kmh 29.69 in1005.4 mb 0.00 in0.0 mm 0.00 in/hr0.0 mm/hr 1.07 in27.2 mm
01:30 PM 69.6°F20.9°C 61.7°F16.5°C 76% 2.4 mph WSW3.9 kmh WSW 6.0 mph9.7 kmh 29.69 in1005.4 mb 0.00 in0.0 mm 0.00 in/hr0.0 mm/hr 1.07 in27.2 mm
01:00 PM 72.4°F22.4°C 62.1°F16.7°C 70% 0.5 mph SW0.8 kmh SW 5.0 mph8.0 kmh 29.68 in1005.1 mb 0.00 in0.0 mm 0.00 in/hr0.0 mm/hr 1.07 in27.2 mm
12:30 PM 70.2°F21.2°C 61.5°F16.4°C 74% 0.9 mph SW1.4 kmh SW 3.0 mph4.8 kmh 29.67 in1004.7 mb 0.00 in0.0 mm 0.00 in/hr0.0 mm/hr 1.07 in27.2 mm
12:00 PM 69.8°F21.0°C 62.3°F16.8°C 77% 4.2 mph WSW6.8 kmh WSW 6.0 mph9.7 kmh 29.67 in1004.7 mb 0.00 in0.0 mm 0.00 in/hr0.0 mm/hr 1.07 in27.2 mm
11:30 AM 69.0°F20.6°C 60.8°F16.0°C 75% 1.6 mph WSW2.6 kmh WSW 3.0 mph4.8 kmh 29.67 in1004.7 mb 0.00 in0.0 mm 0.00 in/hr0.0 mm/hr 1.07 in27.2 mm
11:00 AM 68.4°F20.2°C 62.3°F16.8°C 81% 0.5 mph WSW0.8 kmh WSW 2.0 mph3.2 kmh 29.67 in1004.7 mb 0.00 in0.0 mm 0.00 in/hr0.0 mm/hr 1.07 in27.2 mm
10:30 AM 68.1°F20.1°C 62.4°F16.9°C 82% Calm Calm -- 29.66 in1004.4 mb 0.00 in0.0 mm 0.00 in/hr0.0 mm/hr 1.07 in27.2 mm
10:00 AM 65.2°F18.4°C 61.8°F16.6°C 89% 1.6 mph NNE2.6 kmh NNE 3.0 mph4.8 kmh 29.67 in1004.7 mb 0.00 in0.0 mm 0.00 in/hr0.0 mm/hr 1.07 in27.2 mm
09:30 AM 63.5°F17.5°C 60.8°F16.0°C 91% 1.7 mph ENE2.7 kmh ENE 2.0 mph3.2 kmh 29.66 in1004.4 mb 0.00 in0.0 mm 0.00 in/hr0.0 mm/hr 1.07 in27.2 mm
09:00 AM 63.3°F17.4°C 60.9°F16.1°C 92% 0.9 mph E1.4 kmh E 1.0 mph1.6 kmh 29.65 in1004.1 mb 0.00 in0.0 mm 0.00 in/hr0.0 mm/hr 1.07 in27.2 mm
08:30 AM 62.6°F17.0°C 60.8°F16.0°C 94% 0.1 mph WSW0.2 kmh WSW -- 29.64 in1003.7 mb 0.00 in0.0 mm 0.00 in/hr0.0 mm/hr 1.07 in27.2 mm
08:00 AM 61.2°F16.2°C 59.5°F15.3°C 94% 0.2 mph ESE0.3 kmh ESE -- 29.63 in1003.4 mb 0.00 in0.0 mm 0.00 in/hr0.0 mm/hr 1.07 in27.2 mm
07:30 AM 60.4°F15.8°C 58.6°F14.8°C 94% 4.3 mph SW6.9 kmh SW 7.0 mph11.3 kmh 29.62 in1003.0 mb 0.00 in0.0 mm 0.00 in/hr0.0 mm/hr 1.07 in27.2 mm
07:00 AM 60.4°F15.8°C 59.0°F15.0°C 95% 1.4 mph SW2.3 kmh SW 4.0 mph6.4 kmh 29.62 in1003.0 mb 0.01 in0.3 mm 0.02 in/hr0.5 mm/hr 1.07 in27.2 mm
06:30 AM 60.2°F15.7°C 58.7°F14.8°C 95% 1.8 mph SW2.9 kmh SW 4.0 mph6.4 kmh 29.61 in1002.7 mb 0.00 in0.0 mm 0.00 in/hr0.0 mm/hr 1.06 in26.9 mm
06:00 AM 60.2°F15.7°C 58.8°F14.9°C 95% 2.7 mph ESE4.3 kmh ESE 5.0 mph8.0 kmh 29.60 in1002.4 mb 0.00 in0.0 mm 0.00 in/hr0.0 mm/hr 1.06 in26.9 mm
05:30 AM 60.3°F15.7°C 58.9°F14.9°C 95% Calm Calm -- 29.59 in1002.0 mb 0.00 in0.0 mm 0.00 in/hr0.0 mm/hr 1.06 in26.9 mm
05:00 AM 60.2°F15.7°C 58.8°F14.9°C 95% Calm Calm -- 29.60 in1002.4 mb 0.00 in0.0 mm 0.00 in/hr0.0 mm/hr 1.06 in26.9 mm
04:30 AM 60.5°F15.8°C 58.8°F14.9°C 94% Calm Calm -- 29.59 in1002.0 mb 0.00 in0.0 mm 0.00 in/hr0.0 mm/hr 1.06 in26.9 mm
04:00 AM 60.4°F15.8°C 58.4°F14.7°C 93% 1.2 mph WNW1.9 kmh WNW 2.0 mph3.2 kmh 29.59 in1002.0 mb 0.02 in0.5 mm 0.04 in/hr1.0 mm/hr 1.06 in26.9 mm
03:30 AM 60.7°F15.9°C 59.0°F15.0°C 94% 3.6 mph WNW5.8 kmh WNW 6.0 mph9.7 kmh 29.60 in1002.4 mb 0.17 in4.3 mm 0.34 in/hr8.6 mm/hr 1.05 in26.7 mm
03:00 AM 61.3°F16.3°C 59.6°F15.3°C 94% 5.1 mph SW8.2 kmh SW 7.0 mph11.3 kmh 29.62 in1003.0 mb 0.06 in1.5 mm 0.12 in/hr3.0 mm/hr 0.88 in22.4 mm
02:30 AM 62.4°F16.9°C 60.7°F15.9°C 94% 4.7 mph NW7.6 kmh NW 6.0 mph9.7 kmh 29.62 in1003.0 mb 0.00 in0.0 mm 0.00 in/hr0.0 mm/hr 0.82 in20.8 mm
02:00 AM 62.7°F17.1°C 60.9°F16.1°C 94% 5.1 mph WNW8.2 kmh WNW 7.0 mph11.3 kmh 29.63 in1003.4 mb 0.09 in2.3 mm 0.18 in/hr4.6 mm/hr 0.82 in20.8 mm
01:30 AM 63.4°F17.4°C 61.6°F16.4°C 94% 3.3 mph WNW5.3 kmh WNW 6.0 mph9.7 kmh 29.65 in1004.1 mb 0.05 in1.3 mm 0.10 in/hr2.5 mm/hr 0.74 in18.8 mm
01:00 AM 64.0°F17.8°C 62.2°F16.8°C 94% 3.0 mph WNW4.8 kmh WNW 4.0 mph6.4 kmh 29.65 in1004.1 mb 0.03 in0.8 mm 0.06 in/hr1.5 mm/hr 0.69 in17.5 mm
12:30 AM 64.5°F18.1°C 62.8°F17.1°C 94% 1.6 mph WSW2.6 kmh WSW 4.0 mph6.4 kmh 29.66 in1004.4 mb 0.27 in6.9 mm 0.54 in/hr13.7 mm/hr 0.66 in16.8 mm
12:00 AM 64.9°F18.3°C 62.8°F17.1°C 93% Calm Calm -- 29.67 in1004.7 mb 0.14 in3.6 mm 0.00 in/hr0.0 mm/hr 0.39 in9.9 mm